createdAt,value
2019-03-10T00:02:00.973Z,4.90
2019-03-10T00:04:32.749Z,4.88
2019-03-10T00:07:03.709Z,4.86
2019-03-10T00:09:34.699Z,4.81
2019-03-10T00:12:05.583Z,4.74
2019-03-10T00:14:36.495Z,4.71
2019-03-10T00:17:07.387Z,4.67
2019-03-10T00:19:39.188Z,4.64
2019-03-10T00:22:10.091Z,4.53
2019-03-10T00:24:41.006Z,4.44
2019-03-10T00:27:11.897Z,4.47
2019-03-10T00:29:42.803Z,4.37
2019-03-10T00:32:13.675Z,4.35
2019-03-10T00:34:44.608Z,4.30
2019-03-10T00:37:16.411Z,4.29
2019-03-10T00:40:05.073Z,4.32
2019-03-10T00:42:57.100Z,4.25
2019-03-10T00:45:46.130Z,4.26
2019-03-10T00:48:51.435Z,4.28
2019-03-10T00:51:42.688Z,4.21
2019-03-10T00:54:13.575Z,4.26
2019-03-10T00:56:44.500Z,4.23
2019-03-10T00:59:15.384Z,4.30
2019-03-10T01:01:46.296Z,4.29
2019-03-10T01:04:17.186Z,4.32
2019-03-10T01:06:48.123Z,4.29
2019-03-10T01:09:19.015Z,4.30
2019-03-10T01:11:49.933Z,4.30
2019-03-10T01:14:20.818Z,4.31
2019-03-10T01:16:51.727Z,4.32
2019-03-10T01:19:23.707Z,4.35
2019-03-10T01:21:55.750Z,4.32
2019-03-10T01:24:26.640Z,4.33
2019-03-10T01:26:57.546Z,4.40
2019-03-10T01:29:28.437Z,4.46
2019-03-10T01:32:14.073Z,4.44
2019-03-10T01:34:50.344Z,4.49
2019-03-10T01:37:24.393Z,4.54
2019-03-10T01:39:55.280Z,4.53
2019-03-10T01:42:26.187Z,4.58
2019-03-10T01:44:57.147Z,4.62
2019-03-10T01:47:28.060Z,4.67
2019-03-10T01:49:58.943Z,4.66
2019-03-10T01:52:29.906Z,4.67
2019-03-10T01:55:00.801Z,4.69
2019-03-10T01:57:31.711Z,4.73
2019-03-10T02:00:02.588Z,4.79
2019-03-10T02:02:37.860Z,4.76
2019-03-10T02:05:08.895Z,4.81
2019-03-10T02:07:40.765Z,4.84
2019-03-10T02:10:12.547Z,4.87
2019-03-10T02:12:43.466Z,4.90
2019-03-10T02:15:15.850Z,4.95
2019-03-10T02:17:46.939Z,4.99
2019-03-10T02:20:18.531Z,4.97
2019-03-10T02:22:49.469Z,4.99
2019-03-10T02:25:20.353Z,5.06
2019-03-10T02:27:52.142Z,5.08
2019-03-10T02:30:23.042Z,5.10
2019-03-10T02:32:53.943Z,5.09
2019-03-10T02:35:24.844Z,5.14
2019-03-10T02:37:55.826Z,5.19
2019-03-10T02:40:26.714Z,5.16
2019-03-10T02:42:57.631Z,5.16
2019-03-10T02:45:28.524Z,5.20
2019-03-10T02:47:59.430Z,5.22
2019-03-10T02:50:30.334Z,5.25
2019-03-10T02:53:02.990Z,5.23
2019-03-10T02:55:33.880Z,5.24
2019-03-10T02:58:04.793Z,5.23
2019-03-10T03:00:37.380Z,5.24
2019-03-10T03:03:08.296Z,5.23
2019-03-10T03:05:39.181Z,5.22
2019-03-10T03:08:10.149Z,5.16
2019-03-10T03:11:17.918Z,5.23
2019-03-10T03:13:54.987Z,5.21
2019-03-10T03:16:25.866Z,5.14
2019-03-10T03:18:56.779Z,5.13
2019-03-10T03:21:41.752Z,5.04
2019-03-10T03:24:01.090Z,5.00
2019-03-10T03:26:31.969Z,4.94
2019-03-10T03:29:02.887Z,4.96
2019-03-10T03:31:33.763Z,4.94
2019-03-10T03:34:04.679Z,4.93
2019-03-10T03:36:36.556Z,4.92
2019-03-10T03:39:26.613Z,4.84
2019-03-10T03:41:57.501Z,4.91
2019-03-10T03:44:28.415Z,4.87
2019-03-10T03:46:59.305Z,4.88
2019-03-10T03:49:30.209Z,4.94
2019-03-10T03:52:02.118Z,4.90
2019-03-10T03:54:32.982Z,4.87
2019-03-10T03:57:03.878Z,4.84
2019-03-10T03:59:34.779Z,4.84
2019-03-10T04:02:07.323Z,4.94
2019-03-10T04:04:38.244Z,5.00
2019-03-10T04:07:09.140Z,4.95
2019-03-10T04:09:40.892Z,4.95
2019-03-10T04:12:11.773Z,4.91
2019-03-10T04:14:42.694Z,5.00
2019-03-10T04:17:13.742Z,4.92
2019-03-10T04:19:44.735Z,4.95
2019-03-10T04:22:15.611Z,4.95
2019-03-10T04:24:46.554Z,4.95
2019-03-10T04:27:17.449Z,4.95
2019-03-10T04:29:48.363Z,4.91
2019-03-10T04:32:19.250Z,4.88
2019-03-10T04:34:50.260Z,4.81
2019-03-10T04:37:21.225Z,4.64
2019-03-10T04:39:52.163Z,4.65
2019-03-10T04:42:23.038Z,4.59
2019-03-10T04:44:53.960Z,4.53
2019-03-10T04:47:24.840Z,4.49
2019-03-10T04:49:55.752Z,4.43
2019-03-10T04:52:26.797Z,4.40
2019-03-10T04:54:59.397Z,4.45
2019-03-10T04:57:30.288Z,4.36
2019-03-10T05:00:01.277Z,4.38
2019-03-10T05:02:32.152Z,4.36
2019-03-10T05:05:03.053Z,4.33
2019-03-10T05:07:33.940Z,4.34
2019-03-10T05:10:05.299Z,4.28
2019-03-10T05:12:36.177Z,4.31
2019-03-10T05:15:07.186Z,4.21
2019-03-10T05:17:38.058Z,4.13
2019-03-10T05:20:09.360Z,4.13
2019-03-10T05:22:40.243Z,4.13
2019-03-10T05:25:25.784Z,4.16
2019-03-10T05:27:56.730Z,4.05
2019-03-10T05:30:27.651Z,3.99
2019-03-10T05:32:58.538Z,3.93
2019-03-10T05:35:29.436Z,3.97
2019-03-10T05:38:00.533Z,3.88
2019-03-10T05:40:33.089Z,3.96
2019-03-10T05:43:03.967Z,3.94
2019-03-10T05:45:34.880Z,3.99
2019-03-10T05:48:05.770Z,3.97
2019-03-10T05:50:36.693Z,4.00
2019-03-10T05:53:07.570Z,3.93
2019-03-10T05:55:38.508Z,3.98
2019-03-10T05:58:09.383Z,4.04
2019-03-10T06:00:42.969Z,4.01
2019-03-10T06:03:12.871Z,4.05
2019-03-10T06:05:43.787Z,4.06
2019-03-10T06:08:14.664Z,4.03
2019-03-10T06:10:45.634Z,4.08
2019-03-10T06:13:16.517Z,4.13
2019-03-10T06:15:47.428Z,4.17
2019-03-10T06:18:18.316Z,4.27
2019-03-10T06:20:49.225Z,4.32
2019-03-10T06:23:20.104Z,4.41
2019-03-10T06:25:51.898Z,4.42
2019-03-10T06:28:22.783Z,4.42
2019-03-10T06:30:53.757Z,4.49
2019-03-10T06:33:24.645Z,4.49
2019-03-10T06:35:55.558Z,4.48
2019-03-10T06:38:26.519Z,4.45
2019-03-10T06:40:58.295Z,4.44
2019-03-10T06:43:29.170Z,4.45
2019-03-10T06:46:00.086Z,4.43
2019-03-10T06:48:30.972Z,4.49
2019-03-10T06:51:01.879Z,4.54
2019-03-10T06:53:32.771Z,4.60
2019-03-10T06:56:03.705Z,4.66
2019-03-10T06:58:34.587Z,4.66
2019-03-10T07:01:05.498Z,4.76
2019-03-10T07:03:36.435Z,4.83
2019-03-10T07:06:07.356Z,4.86
2019-03-10T07:08:38.268Z,4.95
2019-03-10T07:11:10.113Z,5.01
2019-03-10T07:13:41.004Z,5.12
2019-03-10T07:16:13.094Z,5.17
2019-03-10T07:18:43.991Z,5.26
2019-03-10T07:21:17.446Z,5.35
2019-03-10T07:23:47.503Z,5.48
2019-03-10T07:26:18.547Z,5.61
2019-03-10T07:28:53.789Z,5.69
2019-03-10T07:31:26.347Z,5.73
2019-03-10T07:33:58.890Z,5.82
2019-03-10T07:36:34.453Z,5.82
2019-03-10T07:39:20.057Z,5.87
2019-03-10T07:42:11.775Z,5.94
2019-03-10T07:44:50.451Z,5.96
2019-03-10T07:47:41.635Z,6.05
2019-03-10T07:50:29.420Z,6.09
2019-03-10T07:53:04.712Z,6.10
2019-03-10T07:55:46.469Z,6.08
2019-03-10T07:58:34.941Z,6.11
2019-03-10T08:01:10.438Z,6.04
2019-03-10T08:03:42.990Z,6.11
2019-03-10T08:06:18.243Z,6.11
2019-03-10T08:08:50.802Z,6.15
2019-03-10T08:11:26.038Z,6.21
2019-03-10T08:14:08.613Z,6.29
2019-03-10T08:16:43.890Z,6.27
2019-03-10T08:19:19.202Z,6.31
2019-03-10T08:22:00.729Z,6.27
2019-03-10T08:24:48.578Z,6.29
2019-03-10T08:27:23.866Z,6.29
2019-03-10T08:29:56.431Z,6.23
2019-03-10T08:32:37.749Z,6.19
2019-03-10T08:35:28.586Z,6.19
2019-03-10T08:38:10.160Z,6.31
2019-03-10T08:40:51.689Z,6.35
2019-03-10T08:43:24.234Z,6.39
2019-03-10T08:46:13.432Z,6.48
2019-03-10T08:48:45.976Z,6.55
2019-03-10T08:51:21.258Z,6.58
2019-03-10T08:53:53.799Z,6.69
2019-03-10T08:56:35.169Z,6.82
2019-03-10T08:59:07.719Z,6.96
2019-03-10T09:01:43.813Z,7.16
2019-03-10T09:04:22.188Z,7.34
2019-03-10T09:07:06.895Z,7.28
2019-03-10T09:09:48.414Z,7.25
2019-03-10T09:12:32.781Z,7.30
2019-03-10T09:15:05.969Z,7.39
2019-03-10T09:17:54.522Z,7.33
2019-03-10T09:20:42.035Z,7.37
2019-03-10T09:23:14.602Z,7.27
2019-03-10T09:25:59.179Z,7.13
2019-03-10T09:28:31.858Z,7.16
2019-03-10T09:31:04.415Z,7.27
2019-03-10T09:33:43.893Z,7.33
2019-03-10T09:36:22.190Z,7.32
2019-03-10T09:38:56.403Z,7.31
2019-03-10T09:41:41.008Z,7.35
2019-03-10T09:44:25.762Z,7.35
2019-03-10T09:47:05.065Z,7.45
2019-03-10T09:49:41.230Z,7.45
2019-03-10T09:52:13.756Z,7.60
2019-03-10T09:54:49.064Z,7.75
2019-03-10T09:57:38.001Z,7.80
2019-03-10T10:00:19.820Z,7.75
2019-03-10T10:02:58.112Z,7.67
2019-03-10T10:05:48.093Z,7.45
2019-03-10T10:08:25.783Z,7.51
2019-03-10T10:11:04.041Z,7.48
2019-03-10T10:13:48.708Z,7.38
2019-03-10T10:16:21.268Z,7.41
2019-03-10T10:19:10.241Z,7.46
2019-03-10T10:21:42.868Z,7.56
2019-03-10T10:24:15.390Z,7.59
2019-03-10T10:26:50.920Z,7.59
2019-03-10T10:29:29.494Z,7.74
2019-03-10T10:32:18.498Z,7.71
2019-03-10T10:35:06.278Z,7.76
2019-03-10T10:37:42.660Z,7.69
2019-03-10T10:40:21.094Z,7.61
2019-03-10T10:43:05.665Z,7.62
2019-03-10T10:45:42.158Z,7.63
2019-03-10T10:48:26.650Z,7.55
2019-03-10T10:51:05.012Z,7.57
2019-03-10T10:53:53.677Z,7.61
2019-03-10T10:56:42.530Z,7.61
2019-03-10T10:59:15.102Z,7.60
2019-03-10T11:01:50.601Z,7.69
2019-03-10T11:04:26.955Z,7.68
2019-03-10T11:06:59.504Z,7.76
2019-03-10T11:09:32.882Z,7.78
2019-03-10T11:12:05.442Z,7.88
2019-03-10T11:14:54.136Z,7.86
2019-03-10T11:17:35.798Z,7.94
2019-03-10T11:20:13.905Z,7.87
2019-03-10T11:23:02.525Z,7.93
2019-03-10T11:25:40.978Z,7.93
2019-03-10T11:28:19.399Z,7.77
2019-03-10T11:30:52.002Z,7.73
2019-03-10T11:33:27.803Z,7.84
2019-03-10T11:36:17.066Z,7.97
2019-03-10T11:38:52.310Z,8.00
2019-03-10T11:41:34.629Z,8.22
2019-03-10T11:44:07.173Z,8.25
2019-03-10T11:46:57.083Z,8.35
2019-03-10T11:49:38.533Z,8.53
2019-03-10T11:52:11.093Z,8.49
2019-03-10T11:54:43.860Z,8.63
2019-03-10T11:57:33.435Z,8.71
2019-03-10T12:00:13.622Z,8.74
2019-03-10T12:02:46.257Z,8.92
2019-03-10T12:05:24.776Z,9.06
2019-03-10T12:08:03.302Z,9.24
2019-03-10T12:10:34.292Z,9.22
2019-03-10T12:13:06.303Z,9.18
2019-03-10T12:15:37.294Z,9.08
2019-03-10T12:18:08.302Z,8.97
2019-03-10T12:20:40.202Z,8.86
2019-03-10T12:23:16.270Z,8.83
2019-03-10T12:25:44.059Z,8.84
2019-03-10T12:28:16.616Z,8.94
2019-03-10T12:30:47.674Z,9.00
2019-03-10T12:33:18.761Z,8.92
2019-03-10T12:35:49.707Z,9.03
2019-03-10T12:38:20.643Z,9.03
2019-03-10T12:40:51.547Z,8.98
2019-03-10T12:43:22.473Z,8.93
2019-03-10T12:45:53.378Z,8.96
2019-03-10T12:48:30.473Z,8.94
2019-03-10T12:50:58.610Z,8.91
2019-03-10T12:53:29.546Z,8.86
2019-03-10T12:56:00.566Z,8.81
2019-03-10T12:58:32.362Z,8.72
2019-03-10T13:01:06.565Z,8.63
2019-03-10T13:03:35.946Z,8.68
2019-03-10T13:06:06.851Z,8.73
2019-03-10T13:08:37.766Z,8.80
2019-03-10T13:11:08.699Z,8.87
2019-03-10T13:13:40.520Z,8.95
2019-03-10T13:16:12.449Z,8.91
2019-03-10T13:18:43.597Z,8.85
2019-03-10T13:21:14.482Z,8.71
2019-03-10T13:23:45.475Z,8.63
2019-03-10T13:26:16.366Z,8.65
2019-03-10T13:28:48.175Z,8.65
2019-03-10T13:34:58.669Z,8.63
2019-03-10T13:37:29.567Z,8.70
2019-03-10T13:40:00.573Z,8.66
2019-03-10T13:42:31.479Z,8.58
2019-03-10T13:45:03.245Z,8.54
2019-03-10T13:47:35.093Z,8.58
2019-03-10T13:50:12.333Z,8.46
2019-03-10T13:52:43.231Z,8.57
2019-03-10T13:55:14.958Z,8.65
2019-03-10T13:57:45.858Z,8.67
2019-03-10T14:00:24.501Z,8.72
2019-03-10T14:02:55.395Z,8.78
2019-03-10T14:05:26.351Z,8.79
2019-03-10T14:07:57.224Z,8.76
2019-03-10T14:10:28.146Z,8.68
2019-03-10T14:12:59.105Z,8.53
2019-03-10T14:15:31.022Z,8.48
2019-03-10T14:18:02.002Z,8.50
2019-03-10T14:20:32.937Z,8.48
2019-03-10T14:23:03.886Z,8.42
2019-03-10T14:25:34.815Z,8.33
2019-03-10T14:28:05.725Z,8.18
2019-03-10T14:30:37.591Z,8.19
2019-03-10T14:33:08.486Z,8.16
2019-03-10T14:35:40.214Z,8.03
2019-03-10T14:38:11.186Z,7.88
2019-03-10T14:40:42.108Z,7.86
2019-03-10T14:43:13.077Z,7.73
2019-03-10T14:45:45.637Z,7.71
2019-03-10T14:48:16.556Z,7.61
2019-03-10T14:50:47.520Z,7.60
2019-03-10T14:53:18.397Z,7.57
2019-03-10T14:55:51.113Z,7.52
2019-03-10T14:58:22.103Z,7.46
2019-03-10T15:00:54.159Z,7.39
2019-03-10T15:03:25.050Z,7.42
2019-03-10T15:05:56.001Z,7.41
2019-03-10T15:08:26.980Z,7.42
2019-03-10T15:10:57.929Z,7.48
2019-03-10T15:13:28.824Z,7.46
2019-03-10T15:16:01.435Z,7.43
2019-03-10T15:18:32.439Z,7.50
2019-03-10T15:21:03.427Z,7.57
2019-03-10T15:23:34.395Z,7.58
2019-03-10T15:26:05.313Z,7.54
2019-03-10T15:28:36.281Z,7.51
2019-03-10T15:31:08.081Z,7.51
2019-03-10T15:33:38.979Z,7.47
2019-03-10T15:36:19.926Z,7.43
2019-03-10T15:38:42.555Z,7.34
2019-03-10T15:41:15.686Z,7.30
2019-03-10T15:43:46.572Z,7.26
2019-03-10T15:46:17.521Z,7.28
2019-03-10T15:48:48.423Z,7.28
2019-03-10T15:51:19.337Z,7.20
2019-03-10T15:53:50.339Z,7.15
2019-03-10T15:56:21.260Z,7.10
2019-03-10T15:58:52.159Z,7.05
2019-03-10T16:01:34.219Z,7.02
2019-03-10T16:04:18.896Z,6.94
2019-03-10T16:06:49.822Z,6.89
2019-03-10T16:09:20.791Z,6.82
2019-03-10T16:11:51.714Z,6.79
2019-03-10T16:14:22.623Z,6.75
2019-03-10T16:16:54.375Z,6.73
2019-03-10T16:19:25.280Z,6.70
2019-03-10T16:21:56.222Z,6.69
2019-03-10T16:24:27.135Z,6.67
2019-03-10T16:26:58.072Z,6.66
2019-03-10T16:29:28.970Z,6.64
2019-03-10T16:32:00.728Z,6.63
2019-03-10T16:34:31.621Z,6.60
2019-03-10T16:37:02.548Z,6.55
2019-03-10T16:39:33.484Z,6.54
2019-03-10T16:42:04.679Z,6.52
2019-03-10T16:44:35.665Z,6.47
2019-03-10T16:47:07.450Z,6.46
2019-03-10T16:49:38.351Z,6.43
2019-03-10T16:52:12.060Z,6.40
2019-03-10T16:54:42.841Z,6.36
2019-03-10T16:57:13.880Z,6.32
2019-03-10T16:59:44.820Z,6.27
2019-03-10T17:02:17.319Z,6.23
2019-03-10T17:04:48.294Z,6.19
2019-03-10T17:07:19.304Z,6.16
2019-03-10T17:09:50.259Z,6.13
2019-03-10T17:12:21.190Z,6.08
2019-03-10T17:14:52.183Z,6.03
2019-03-10T17:17:24.025Z,5.98
2019-03-10T17:19:55.020Z,5.94
2019-03-10T17:22:25.949Z,5.87
2019-03-10T17:24:56.985Z,5.83
2019-03-10T17:27:27.929Z,5.79
2019-03-10T17:30:01.424Z,5.74
2019-03-10T17:32:33.198Z,5.67
2019-03-10T17:35:04.575Z,5.62
2019-03-10T17:37:35.492Z,5.56
2019-03-10T17:40:13.056Z,5.51
2019-03-10T17:42:45.335Z,5.46
2019-03-10T17:45:18.242Z,5.41
2019-03-10T17:47:52.201Z,5.35
2019-03-10T17:50:23.104Z,5.28
2019-03-10T17:52:55.809Z,5.19
2019-03-10T17:55:26.823Z,5.13
2019-03-10T17:57:57.751Z,5.06
2019-03-10T18:00:33.255Z,5.00
2019-03-10T18:03:05.160Z,4.96
2019-03-10T18:05:36.133Z,4.88
2019-03-10T18:08:07.060Z,4.83
2019-03-10T18:10:38.051Z,4.76
2019-03-10T18:13:09.008Z,4.71
2019-03-10T18:15:39.917Z,4.66
2019-03-10T18:18:11.720Z,4.62
2019-03-10T18:20:42.677Z,4.57
2019-03-10T18:23:13.643Z,4.52
2019-03-10T18:25:44.529Z,4.47
2019-03-10T18:28:15.617Z,4.40
2019-03-10T18:30:49.047Z,4.36
2019-03-10T18:33:19.987Z,4.32
2019-03-10T18:35:50.951Z,4.27
2019-03-10T18:38:21.899Z,4.22
2019-03-10T18:40:52.812Z,4.18
2019-03-10T18:43:25.055Z,4.14
2019-03-10T18:45:56.222Z,4.09
2019-03-10T18:48:28.822Z,4.07
2019-03-10T18:50:59.724Z,4.04
2019-03-10T18:53:31.430Z,4.01
2019-03-10T18:56:02.391Z,3.98
2019-03-10T18:58:33.391Z,3.97
2019-03-10T19:01:05.360Z,3.95
2019-03-10T19:03:37.215Z,3.96
2019-03-10T19:06:08.135Z,3.96
2019-03-10T19:08:39.917Z,3.98
2019-03-10T19:11:10.831Z,3.99
2019-03-10T19:13:41.787Z,4.02
2019-03-10T19:16:12.689Z,4.04
2019-03-10T19:18:43.881Z,4.04
2019-03-10T19:21:14.872Z,4.03
2019-03-10T19:23:45.869Z,4.03
2019-03-10T19:26:16.786Z,4.02
2019-03-10T19:28:47.715Z,4.01
2019-03-10T19:31:18.636Z,4.01
2019-03-10T19:33:49.675Z,4.00
2019-03-10T19:36:20.575Z,3.99
2019-03-10T19:38:51.509Z,3.98
2019-03-10T19:41:22.420Z,3.97
2019-03-10T19:43:53.430Z,3.93
2019-03-10T19:46:24.327Z,3.96
2019-03-10T19:48:56.173Z,3.95
2019-03-10T19:51:29.566Z,3.93
2019-03-10T19:54:01.307Z,3.92
2019-03-10T19:56:32.245Z,3.88
2019-03-10T19:59:03.153Z,3.86
2019-03-10T20:01:34.059Z,3.84
2019-03-10T20:04:05.890Z,3.82
2019-03-10T20:06:36.792Z,3.82
2019-03-10T20:09:07.877Z,3.79
2019-03-10T20:11:38.773Z,3.77
2019-03-10T20:14:09.761Z,3.74
2019-03-10T20:16:41.363Z,3.73
2019-03-10T20:19:12.855Z,3.73
2019-03-10T20:21:43.777Z,3.75
2019-03-10T20:24:14.705Z,3.76
2019-03-10T20:26:45.606Z,3.76
2019-03-10T20:29:16.549Z,3.77
2019-03-10T20:31:47.454Z,3.77
2019-03-10T20:34:19.230Z,3.78
2019-03-10T20:36:52.122Z,3.80
2019-03-10T20:39:22.848Z,3.79
2019-03-10T20:42:04.444Z,3.80
2019-03-10T20:44:26.471Z,3.84
2019-03-10T20:46:57.372Z,3.85
2019-03-10T20:49:29.987Z,3.84
2019-03-10T20:52:00.900Z,3.88
2019-03-10T20:54:33.538Z,3.90
2019-03-10T20:57:04.425Z,3.93
2019-03-10T20:59:35.360Z,3.95
2019-03-10T21:02:06.272Z,3.96
2019-03-10T21:04:38.165Z,3.99
2019-03-10T21:07:10.215Z,3.98
2019-03-10T21:09:41.378Z,4.00
2019-03-10T21:12:13.132Z,4.01
2019-03-10T21:14:44.067Z,4.01
2019-03-10T21:17:14.978Z,4.00
2019-03-10T21:19:47.577Z,4.01
2019-03-10T21:22:20.889Z,4.02
2019-03-10T21:24:52.339Z,4.04
2019-03-10T21:27:23.185Z,4.08
2019-03-10T21:29:54.171Z,4.10
2019-03-10T21:32:25.080Z,4.14
2019-03-10T21:34:56.917Z,4.16
2019-03-10T21:37:27.814Z,4.20
2019-03-10T21:39:59.604Z,4.23
2019-03-10T21:42:30.501Z,4.27
2019-03-10T21:45:01.429Z,4.30
2019-03-10T21:47:32.357Z,4.30
2019-03-10T21:50:07.211Z,4.31
2019-03-10T21:52:38.106Z,4.32
2019-03-10T21:55:11.704Z,4.35
2019-03-10T21:57:44.737Z,4.39
2019-03-10T22:00:19.565Z,4.44
2019-03-10T22:02:50.732Z,4.47
2019-03-10T22:05:22.498Z,4.49
2019-03-10T22:07:53.404Z,4.51
2019-03-10T22:10:27.395Z,4.57
2019-03-10T22:12:56.944Z,4.59
2019-03-10T22:15:27.862Z,4.63
2019-03-10T22:17:58.775Z,4.66
2019-03-10T22:20:29.757Z,4.69
2019-03-10T22:23:00.657Z,4.69
2019-03-10T22:25:31.581Z,4.72
2019-03-10T22:28:02.483Z,4.73
2019-03-10T22:30:33.397Z,4.78
2019-03-10T22:33:04.302Z,4.78
2019-03-10T22:35:35.241Z,4.80
2019-03-10T22:38:06.138Z,4.82
2019-03-10T22:40:37.068Z,4.86
2019-03-10T22:43:07.971Z,4.88
2019-03-10T22:45:38.977Z,4.88
2019-03-10T22:48:09.872Z,4.90
2019-03-10T22:50:42.427Z,4.87
2019-03-10T22:53:13.320Z,4.93
2019-03-10T22:55:44.250Z,4.94
2019-03-10T22:58:15.153Z,4.99
2019-03-10T23:00:50.415Z,5.01
2019-03-10T23:03:21.321Z,4.97
2019-03-10T23:05:53.137Z,5.00
2019-03-10T23:08:24.035Z,5.01
2019-03-10T23:10:55.083Z,4.99
2019-03-10T23:13:25.971Z,4.99
2019-03-10T23:15:56.884Z,4.95
2019-03-10T23:18:27.799Z,4.92
2019-03-10T23:20:59.683Z,4.88
2019-03-10T23:23:31.557Z,4.81
2019-03-10T23:26:06.487Z,4.79
2019-03-10T23:28:39.943Z,4.75
2019-03-10T23:31:10.039Z,4.74
2019-03-10T23:34:01.895Z,4.72
2019-03-10T23:36:33.792Z,4.70
2019-03-10T23:39:06.295Z,4.63
2019-03-10T23:41:37.229Z,4.63
2019-03-10T23:44:08.131Z,4.61
2019-03-10T23:46:39.041Z,4.64
2019-03-10T23:49:09.927Z,4.62
2019-03-10T23:51:41.780Z,4.59
2019-03-10T23:54:12.675Z,4.55
2019-03-10T23:56:43.783Z,4.53
2019-03-10T23:59:14.683Z,4.48
